createdAt,value
2019-01-19T00:02:11.511Z,99.90
2019-01-19T00:05:25.367Z,99.90
2019-01-19T00:08:38.173Z,99.90
2019-01-19T00:11:47.950Z,99.90
2019-01-19T00:14:41.790Z,99.90
2019-01-19T00:17:30.357Z,99.90
2019-01-19T00:20:27.936Z,99.90
2019-01-19T00:23:51.014Z,99.90
2019-01-19T00:26:55.016Z,99.90
2019-01-19T00:29:35.668Z,99.90
2019-01-19T00:32:16.644Z,99.90
2019-01-19T00:35:17.778Z,99.90
2019-01-19T00:37:56.998Z,99.90
2019-01-19T00:41:04.535Z,99.90
2019-01-19T00:44:02.423Z,99.90
2019-01-19T00:46:53.144Z,99.90
2019-01-19T00:49:26.371Z,99.90
2019-01-19T00:52:15.310Z,99.90
2019-01-19T00:55:03.854Z,99.90
2019-01-19T00:58:00.036Z,99.90
2019-01-19T01:00:35.660Z,99.90
2019-01-19T01:03:20.639Z,99.90
2019-01-19T01:06:00.982Z,99.90
2019-01-19T01:09:03.936Z,99.90
2019-01-19T01:11:47.629Z,99.90
2019-01-19T01:14:49.371Z,99.90
2019-01-19T01:17:40.971Z,99.90
2019-01-19T01:20:39.261Z,99.90
2019-01-19T01:23:43.435Z,99.90
2019-01-19T01:26:45.671Z,99.90
2019-01-19T01:29:51.527Z,99.90
2019-01-19T01:32:55.955Z,99.90
2019-01-19T01:36:10.023Z,99.90
2019-01-19T01:39:22.834Z,99.90
2019-01-19T01:42:25.943Z,99.90
2019-01-19T01:45:40.208Z,99.90
2019-01-19T01:48:39.096Z,99.90
2019-01-19T01:51:38.875Z,99.90
2019-01-19T01:54:45.851Z,99.90
2019-01-19T01:57:21.443Z,99.90
2019-01-19T02:00:21.918Z,99.90
2019-01-19T02:03:33.541Z,99.90
2019-01-19T02:06:32.213Z,99.90
2019-01-19T02:09:20.987Z,99.90
2019-01-19T02:12:44.038Z,99.90
2019-01-19T02:15:39.551Z,99.90
2019-01-19T02:18:27.891Z,99.90
2019-01-19T02:21:21.758Z,99.90
2019-01-19T02:24:13.531Z,99.90
2019-01-19T02:27:23.767Z,99.90
2019-01-19T02:30:30.459Z,99.90
2019-01-19T02:33:45.091Z,99.90
2019-01-19T02:36:52.021Z,99.90
2019-01-19T02:39:58.267Z,99.90
2019-01-19T02:43:10.987Z,99.90
2019-01-19T02:46:12.443Z,99.90
2019-01-19T02:49:09.520Z,99.90
2019-01-19T02:52:09.517Z,99.90
2019-01-19T02:55:08.778Z,99.90
2019-01-19T02:58:12.418Z,99.90
2019-01-19T03:01:15.238Z,99.90
2019-01-19T03:04:25.048Z,99.90
2019-01-19T03:07:35.047Z,99.90
2019-01-19T03:10:38.903Z,99.90
2019-01-19T03:13:20.923Z,99.90
2019-01-19T03:16:25.211Z,99.90
2019-01-19T03:19:31.000Z,99.90
2019-01-19T03:22:27.242Z,99.90
2019-01-19T03:25:19.049Z,99.90
2019-01-19T03:28:33.795Z,99.90
2019-01-19T03:31:51.162Z,99.90
2019-01-19T03:34:47.776Z,99.90
2019-01-19T03:37:52.228Z,99.90
2019-01-19T03:41:09.171Z,99.90
2019-01-19T03:44:14.538Z,99.90
2019-01-19T03:47:30.651Z,99.90
2019-01-19T03:50:28.218Z,99.90
2019-01-19T03:53:04.248Z,99.90
2019-01-19T03:56:13.998Z,99.90
2019-01-19T03:59:00.016Z,99.90
2019-01-19T04:02:04.445Z,99.90
2019-01-19T04:07:46.880Z,99.90
2019-01-19T04:10:38.582Z,99.90
2019-01-19T04:13:35.276Z,99.90
2019-01-19T04:16:30.747Z,99.90
2019-01-19T04:19:47.906Z,99.90
2019-01-19T04:22:40.697Z,99.90
2019-01-19T04:25:43.833Z,99.90
2019-01-19T04:28:15.159Z,99.90
2019-01-19T04:30:44.828Z,99.90
2019-01-19T04:33:14.467Z,99.90
2019-01-19T04:35:44.067Z,99.90
2019-01-19T04:38:13.652Z,99.90
2019-01-19T04:40:43.252Z,99.90
2019-01-19T04:43:12.837Z,99.90
2019-01-19T04:45:42.443Z,99.90
2019-01-19T04:48:12.096Z,99.90
2019-01-19T04:50:42.762Z,99.90
2019-01-19T04:53:12.361Z,99.90
2019-01-19T04:55:41.960Z,99.90
2019-01-19T04:58:11.517Z,99.90
2019-01-19T05:00:41.101Z,99.90
2019-01-19T05:03:10.688Z,99.90
2019-01-19T05:05:40.259Z,99.90
2019-01-19T05:08:09.840Z,99.90
2019-01-19T05:10:39.420Z,99.90
2019-01-19T05:13:09.307Z,99.90
2019-01-19T05:15:38.892Z,99.90
2019-01-19T05:18:08.745Z,99.90
2019-01-19T05:20:38.338Z,99.90
2019-01-19T05:23:07.967Z,99.90
2019-01-19T05:25:37.554Z,99.90
2019-01-19T05:28:07.472Z,99.90
2019-01-19T05:30:37.076Z,99.90
2019-01-19T05:33:06.667Z,99.90
2019-01-19T05:35:36.258Z,99.90
2019-01-19T05:38:05.930Z,99.90
2019-01-19T05:40:35.511Z,99.90
2019-01-19T05:43:05.307Z,99.90
2019-01-19T05:45:34.923Z,99.90
2019-01-19T05:48:04.956Z,99.90
2019-01-19T05:50:34.558Z,99.90
2019-01-19T05:53:04.301Z,99.90
2019-01-19T05:55:33.979Z,99.90
2019-01-19T05:58:03.576Z,99.90
2019-01-19T06:00:34.458Z,99.90
2019-01-19T06:03:04.843Z,99.90
2019-01-19T06:05:34.426Z,99.90
2019-01-19T06:08:04.081Z,99.90
2019-01-19T06:10:34.119Z,99.90
2019-01-19T06:13:03.719Z,99.90
2019-01-19T06:15:33.293Z,99.90
2019-01-19T06:18:03.299Z,99.90
2019-01-19T06:20:32.897Z,99.90
2019-01-19T06:23:02.539Z,99.90
2019-01-19T06:25:32.115Z,99.90
2019-01-19T06:28:01.783Z,99.90
2019-01-19T06:30:31.385Z,99.90
2019-01-19T06:33:00.972Z,99.90
2019-01-19T06:35:30.847Z,99.90
2019-01-19T06:38:01.592Z,99.90
2019-01-19T06:40:31.175Z,99.90
2019-01-19T06:43:00.799Z,99.90
2019-01-19T06:45:30.439Z,99.90
2019-01-19T06:48:00.051Z,99.90
2019-01-19T06:50:29.966Z,99.90
2019-01-19T06:52:59.589Z,99.90
2019-01-19T06:55:33.869Z,99.90
2019-01-19T06:58:03.510Z,99.90
2019-01-19T07:00:33.189Z,99.90
2019-01-19T07:03:02.932Z,99.90
2019-01-19T07:05:32.811Z,99.90
2019-01-19T07:08:02.422Z,99.90
2019-01-19T07:10:31.995Z,99.90
2019-01-19T07:13:01.644Z,99.90
2019-01-19T07:15:32.218Z,99.90
2019-01-19T07:18:01.844Z,99.90
2019-01-19T07:20:31.542Z,99.90
2019-01-19T07:23:01.232Z,99.90
2019-01-19T07:25:30.832Z,99.90
2019-01-19T07:28:00.710Z,99.90
2019-01-19T07:30:30.655Z,99.90
2019-01-19T07:33:00.274Z,99.90
2019-01-19T07:35:29.937Z,99.90
2019-01-19T07:37:59.538Z,99.90
2019-01-19T07:40:29.192Z,99.90
2019-01-19T07:43:06.565Z,99.90
2019-01-19T07:45:37.119Z,99.90
2019-01-19T07:48:07.391Z,99.90
2019-01-19T07:50:36.996Z,99.90
2019-01-19T07:53:06.624Z,99.90
2019-01-19T07:55:36.286Z,99.90
2019-01-19T07:58:06.050Z,99.90
2019-01-19T08:00:35.642Z,99.90
2019-01-19T08:03:05.243Z,99.90
2019-01-19T08:05:34.929Z,99.90
2019-01-19T08:08:04.707Z,99.90
2019-01-19T08:10:34.282Z,99.90
2019-01-19T08:13:04.410Z,99.90
2019-01-19T08:15:34.239Z,99.90
2019-01-19T08:18:03.846Z,99.90
2019-01-19T08:20:33.438Z,99.90
2019-01-19T08:23:03.043Z,99.90
2019-01-19T08:25:32.625Z,99.90
2019-01-19T08:28:02.210Z,99.90
2019-01-19T08:30:32.062Z,99.90
2019-01-19T08:33:01.644Z,99.90
2019-01-19T08:35:31.931Z,99.90
2019-01-19T08:38:01.563Z,99.90
2019-01-19T08:40:36.089Z,99.90
2019-01-19T08:43:26.967Z,99.90
2019-01-19T08:45:56.557Z,99.90
2019-01-19T08:48:26.511Z,99.90
2019-01-19T08:50:56.130Z,99.90
2019-01-19T08:53:25.735Z,99.90
2019-01-19T08:55:55.407Z,99.90
2019-01-19T08:58:25.245Z,99.90
2019-01-19T09:00:55.140Z,99.90
2019-01-19T09:03:24.721Z,99.90
2019-01-19T09:05:54.320Z,99.90
2019-01-19T09:08:23.927Z,99.90
2019-01-19T09:10:53.505Z,99.90
2019-01-19T09:13:23.111Z,99.90
2019-01-19T09:15:56.511Z,99.90
2019-01-19T09:18:26.126Z,99.90
2019-01-19T09:20:55.708Z,99.90
2019-01-19T09:23:29.362Z,99.90
2019-01-19T09:25:58.954Z,99.90
2019-01-19T09:28:28.552Z,99.90
2019-01-19T09:30:58.231Z,99.90
2019-01-19T09:33:28.082Z,99.90
2019-01-19T09:35:57.687Z,99.90
2019-01-19T09:38:27.291Z,99.90
2019-01-19T09:40:56.944Z,99.90
2019-01-19T09:43:26.531Z,99.90
2019-01-19T09:45:56.119Z,99.90
2019-01-19T09:48:25.705Z,99.90
2019-01-19T09:50:55.349Z,99.90
2019-01-19T09:53:24.958Z,99.90
2019-01-19T09:55:54.540Z,99.90
2019-01-19T09:58:24.631Z,99.90
2019-01-19T10:00:54.292Z,99.90
2019-01-19T10:03:23.979Z,99.90
2019-01-19T10:05:53.631Z,99.90
2019-01-19T10:08:23.246Z,99.90
2019-01-19T10:10:52.909Z,99.90
2019-01-19T10:13:22.577Z,99.90
2019-01-19T10:15:52.520Z,99.90
2019-01-19T10:18:22.519Z,99.90
2019-01-19T10:20:53.050Z,99.90
2019-01-19T10:23:22.672Z,99.90
2019-01-19T10:25:53.658Z,99.90
2019-01-19T10:28:23.586Z,99.90
2019-01-19T10:30:53.266Z,99.90
2019-01-19T10:33:22.923Z,99.90
2019-01-19T10:35:52.504Z,99.90
2019-01-19T10:38:22.091Z,99.90
2019-01-19T10:40:52.638Z,99.90
2019-01-19T10:43:22.232Z,99.90
2019-01-19T10:45:51.831Z,99.90
2019-01-19T10:48:22.410Z,99.90
2019-01-19T10:50:52.024Z,99.90
2019-01-19T10:53:21.630Z,99.90
2019-01-19T10:55:51.272Z,99.90
2019-01-19T10:58:21.255Z,99.90
2019-01-19T11:00:52.070Z,99.90
2019-01-19T11:03:21.866Z,99.90
2019-01-19T11:05:52.255Z,99.90
2019-01-19T11:08:22.099Z,99.90
2019-01-19T11:10:51.772Z,99.90
2019-01-19T11:13:21.381Z,99.90
2019-01-19T11:15:50.970Z,99.90
2019-01-19T11:18:20.571Z,99.90
2019-01-19T11:20:50.174Z,99.90
2019-01-19T11:23:19.843Z,99.90
2019-01-19T11:25:49.450Z,99.90
2019-01-19T11:28:19.039Z,99.90
2019-01-19T11:30:48.628Z,99.90
2019-01-19T11:33:18.256Z,99.90
2019-01-19T11:35:48.145Z,99.90
2019-01-19T11:38:20.199Z,99.90
2019-01-19T11:40:49.099Z,99.90
2019-01-19T11:43:18.699Z,99.90
2019-01-19T11:45:48.715Z,99.90
2019-01-19T11:48:18.314Z,99.90
2019-01-19T11:50:47.899Z,99.90
2019-01-19T11:53:17.650Z,99.90
2019-01-19T11:55:47.242Z,99.90
2019-01-19T11:58:16.867Z,99.90
2019-01-19T12:00:46.471Z,99.90
2019-01-19T12:03:16.081Z,99.90
2019-01-19T12:05:45.687Z,99.90
2019-01-19T12:08:19.431Z,99.90
2019-01-19T12:10:46.635Z,99.90
2019-01-19T12:13:16.239Z,99.90
2019-01-19T12:15:45.848Z,99.90
2019-01-19T12:18:15.442Z,99.90
2019-01-19T12:20:47.248Z,99.90
2019-01-19T12:23:17.084Z,99.90
2019-01-19T12:25:46.759Z,99.90
2019-01-19T12:28:16.472Z,99.70
2019-01-19T12:30:46.107Z,99.40
2019-01-19T12:33:16.091Z,99.70
2019-01-19T12:35:45.703Z,99.40
2019-01-19T12:38:15.291Z,99.10
2019-01-19T12:40:45.216Z,99.40
2019-01-19T12:43:20.549Z,99.30
2019-01-19T12:45:58.560Z,99.40
2019-01-19T12:48:28.204Z,99.60
2019-01-19T12:50:57.800Z,99.10
2019-01-19T12:53:27.734Z,99.60
2019-01-19T12:55:57.329Z,99.50
2019-01-19T12:58:26.910Z,99.90
2019-01-19T13:00:56.600Z,99.20
2019-01-19T13:03:26.284Z,98.70
2019-01-19T13:06:22.623Z,99.00
2019-01-19T13:08:53.526Z,98.80
2019-01-19T13:12:01.398Z,99.90
2019-01-19T13:14:32.355Z,99.10
2019-01-19T13:17:16.603Z,98.40
2019-01-19T13:20:34.007Z,99.10
2019-01-19T13:23:34.419Z,99.20
2019-01-19T13:26:34.689Z,99.20
2019-01-19T13:29:28.002Z,99.30
2019-01-19T13:32:15.878Z,99.60
2019-01-19T13:35:38.999Z,99.10
2019-01-19T13:38:28.715Z,98.80
2019-01-19T13:41:34.676Z,99.00
2019-01-19T13:44:44.258Z,99.40
2019-01-19T13:47:46.592Z,99.20
2019-01-19T13:50:38.551Z,98.90
2019-01-19T13:53:45.410Z,99.10
2019-01-19T13:56:40.430Z,99.10
2019-01-19T13:59:38.938Z,99.30
2019-01-19T14:02:39.519Z,99.50
2019-01-19T14:05:47.599Z,99.50
2019-01-19T14:09:05.133Z,99.30
2019-01-19T14:11:59.115Z,99.70
2019-01-19T14:15:00.590Z,99.90
2019-01-19T14:17:56.023Z,99.70
2019-01-19T14:21:14.759Z,99.20
2019-01-19T14:24:13.776Z,99.60
2019-01-19T14:27:25.032Z,99.60
2019-01-19T14:30:32.154Z,99.90
2019-01-19T14:33:22.975Z,99.90
2019-01-19T14:36:27.439Z,99.90
2019-01-19T14:39:23.894Z,99.90
2019-01-19T14:42:18.908Z,99.90
2019-01-19T14:45:26.465Z,99.90
2019-01-19T14:48:39.243Z,99.90
2019-01-19T14:51:31.149Z,99.90
2019-01-19T14:54:45.636Z,99.90
2019-01-19T14:57:59.252Z,99.90
2019-01-19T15:01:09.680Z,99.90
2019-01-19T15:04:23.911Z,99.90
2019-01-19T15:07:29.736Z,99.90
2019-01-19T15:10:35.543Z,99.90
2019-01-19T15:13:41.489Z,99.90
2019-01-19T15:16:51.139Z,99.90
2019-01-19T15:19:41.285Z,99.90
2019-01-19T15:22:28.884Z,99.90
2019-01-19T15:25:34.756Z,99.90
2019-01-19T15:28:32.935Z,99.90
2019-01-19T15:31:42.154Z,99.90
2019-01-19T15:34:48.040Z,99.90
2019-01-19T15:38:06.034Z,99.90
2019-01-19T15:41:23.921Z,99.90
2019-01-19T15:44:37.782Z,99.90
2019-01-19T15:47:23.650Z,99.90
2019-01-19T15:50:34.825Z,99.90
2019-01-19T15:53:33.315Z,99.90
2019-01-19T15:56:49.597Z,99.90
2019-01-19T15:59:35.931Z,99.90
2019-01-19T16:02:45.868Z,99.90
2019-01-19T16:05:39.199Z,99.90
2019-01-19T16:08:42.547Z,99.90
2019-01-19T16:11:56.683Z,99.90
2019-01-19T16:15:09.491Z,99.90
2019-01-19T16:18:22.534Z,99.90
2019-01-19T16:21:05.237Z,99.90
2019-01-19T16:24:01.898Z,99.90
2019-01-19T16:26:54.035Z,99.90
2019-01-19T16:29:58.754Z,99.90
2019-01-19T16:33:03.751Z,99.90
2019-01-19T16:36:01.313Z,99.90
2019-01-19T16:39:36.834Z,99.90
2019-01-19T16:42:39.412Z,99.90
2019-01-19T16:45:59.759Z,99.90
2019-01-19T16:48:51.423Z,99.90
2019-01-19T16:51:57.577Z,99.90
2019-01-19T16:54:51.443Z,99.90
2019-01-19T16:58:02.864Z,99.90
2019-01-19T17:01:08.427Z,99.90
2019-01-19T17:04:11.866Z,99.90
2019-01-19T17:06:55.425Z,99.90
2019-01-19T17:09:34.147Z,99.90
2019-01-19T17:12:45.079Z,99.90
2019-01-19T17:15:33.256Z,99.90
2019-01-19T17:18:14.232Z,99.90
2019-01-19T17:21:33.175Z,99.90
2019-01-19T17:24:50.331Z,99.90
2019-01-19T17:27:49.316Z,99.90
2019-01-19T17:30:55.777Z,99.90
2019-01-19T17:33:58.247Z,99.90
2019-01-19T17:37:05.648Z,99.90
2019-01-19T17:40:00.394Z,99.90
2019-01-19T17:43:11.271Z,99.90
2019-01-19T17:46:30.052Z,99.90
2019-01-19T17:49:29.450Z,99.90
2019-01-19T17:52:24.107Z,99.90
2019-01-19T17:55:59.467Z,99.90
2019-01-19T17:59:20.886Z,99.90
2019-01-19T18:02:18.507Z,99.90
2019-01-19T18:05:31.343Z,99.90
2019-01-19T18:08:43.168Z,99.90
2019-01-19T18:11:52.583Z,99.90
2019-01-19T18:15:24.588Z,99.90
2019-01-19T18:18:18.375Z,99.90
2019-01-19T18:21:35.231Z,99.90
2019-01-19T18:24:26.086Z,99.90
2019-01-19T18:27:08.742Z,99.90
2019-01-19T18:30:21.299Z,99.90
2019-01-19T18:33:02.056Z,99.90
2019-01-19T18:36:00.435Z,99.90
2019-01-19T18:39:20.612Z,99.90
2019-01-19T18:42:27.323Z,99.90
2019-01-19T18:45:25.993Z,99.90
2019-01-19T18:48:09.945Z,99.90
2019-01-19T18:51:15.839Z,99.90
2019-01-19T18:54:30.464Z,99.90
2019-01-19T19:00:17.617Z,99.90
2019-01-19T19:03:25.046Z,99.90
2019-01-19T19:06:11.371Z,99.90
2019-01-19T19:09:21.239Z,99.90
2019-01-19T19:12:20.339Z,99.90
2019-01-19T19:15:09.500Z,99.90
2019-01-19T19:18:22.901Z,99.90
2019-01-19T19:21:16.481Z,99.90
2019-01-19T19:23:56.251Z,99.90
2019-01-19T19:27:06.177Z,99.90
2019-01-19T19:30:14.465Z,99.90
2019-01-19T19:33:05.918Z,99.90
2019-01-19T19:36:11.968Z,99.90
2019-01-19T19:39:04.718Z,99.90
2019-01-19T19:42:12.852Z,99.90
2019-01-19T19:44:56.278Z,99.90
2019-01-19T19:48:22.719Z,99.90
2019-01-19T19:51:17.630Z,99.90
2019-01-19T19:53:47.216Z,99.90
2019-01-19T19:56:15.550Z,99.90
2019-01-19T19:58:45.304Z,99.90
2019-01-19T20:01:15.228Z,99.90
2019-01-19T20:03:44.883Z,99.90
2019-01-19T20:06:14.736Z,99.90
2019-01-19T20:08:44.459Z,99.90
2019-01-19T20:11:15.179Z,99.90
2019-01-19T20:13:44.751Z,99.90
2019-01-19T20:16:14.326Z,99.90
2019-01-19T20:18:43.911Z,99.90
2019-01-19T20:21:13.579Z,99.90
2019-01-19T20:23:43.265Z,99.90
2019-01-19T20:26:12.902Z,99.90
2019-01-19T20:28:42.511Z,99.90
2019-01-19T20:31:12.084Z,99.90
2019-01-19T20:33:43.133Z,99.90
2019-01-19T20:36:12.718Z,99.90
2019-01-19T20:38:43.484Z,99.90
2019-01-19T20:41:13.059Z,99.90
2019-01-19T20:43:43.750Z,99.90
2019-01-19T20:46:13.367Z,99.90
2019-01-19T20:48:43.160Z,99.90
2019-01-19T20:51:13.305Z,99.90
2019-01-19T20:53:43.053Z,99.90
2019-01-19T20:56:12.630Z,99.90
2019-01-19T20:58:42.290Z,99.90
2019-01-19T21:01:12.128Z,99.90
2019-01-19T21:03:41.939Z,99.90
2019-01-19T21:06:11.742Z,99.90
2019-01-19T21:08:41.807Z,99.90
2019-01-19T21:11:11.528Z,99.90
2019-01-19T21:13:42.311Z,99.90
2019-01-19T21:16:12.219Z,99.90
2019-01-19T21:18:41.957Z,99.90
2019-01-19T21:21:11.739Z,99.90
2019-01-19T21:23:41.465Z,99.90
2019-01-19T21:26:11.246Z,99.90
2019-01-19T21:28:40.964Z,99.90
2019-01-19T21:31:10.691Z,99.90
2019-01-19T21:33:40.411Z,99.90
2019-01-19T21:36:10.192Z,99.90
2019-01-19T21:38:40.253Z,99.90
2019-01-19T21:41:10.023Z,99.90
2019-01-19T21:43:39.727Z,99.90
2019-01-19T21:46:09.551Z,99.90
2019-01-19T21:48:39.374Z,99.90
2019-01-19T21:51:09.463Z,99.90
2019-01-19T21:53:39.223Z,99.90
2019-01-19T21:56:08.955Z,99.90
2019-01-19T21:58:38.668Z,99.90
2019-01-19T22:01:08.683Z,99.90
2019-01-19T22:03:38.408Z,99.90
2019-01-19T22:06:08.118Z,99.90
2019-01-19T22:08:37.841Z,99.90
2019-01-19T22:11:07.544Z,99.90
2019-01-19T22:13:37.391Z,99.90
2019-01-19T22:16:07.407Z,99.90
2019-01-19T22:18:37.448Z,99.90
2019-01-19T22:21:07.206Z,99.90
2019-01-19T22:23:36.925Z,99.90
2019-01-19T22:26:08.663Z,99.90
2019-01-19T22:28:38.384Z,99.90
2019-01-19T22:31:08.092Z,99.90
2019-01-19T22:33:37.896Z,99.90
2019-01-19T22:36:07.607Z,99.90
2019-01-19T22:38:37.323Z,99.90
2019-01-19T22:41:07.183Z,99.90
2019-01-19T22:43:36.917Z,99.90
2019-01-19T22:46:06.679Z,99.90
2019-01-19T22:48:36.396Z,99.90
2019-01-19T22:51:11.194Z,99.90
2019-01-19T22:53:37.540Z,99.90
2019-01-19T22:56:07.251Z,99.90
2019-01-19T22:58:36.964Z,99.90
2019-01-19T23:01:26.954Z,99.90
2019-01-19T23:03:56.770Z,99.90
2019-01-19T23:06:26.451Z,99.90
2019-01-19T23:08:56.332Z,99.90
2019-01-19T23:11:26.043Z,99.90
2019-01-19T23:13:56.568Z,99.90
2019-01-19T23:16:26.260Z,99.90
2019-01-19T23:18:56.059Z,99.90
2019-01-19T23:21:25.799Z,99.90
2019-01-19T23:23:56.494Z,99.90
2019-01-19T23:26:26.580Z,99.90
2019-01-19T23:28:56.264Z,99.90
2019-01-19T23:31:25.975Z,99.90
2019-01-19T23:33:55.694Z,99.90
2019-01-19T23:36:25.398Z,99.90
2019-01-19T23:38:55.184Z,99.90
2019-01-19T23:41:24.879Z,99.90
2019-01-19T23:43:54.572Z,99.90
2019-01-19T23:46:24.257Z,99.90
2019-01-19T23:48:54.263Z,99.90
2019-01-19T23:51:23.983Z,99.90
2019-01-19T23:53:53.995Z,99.90
2019-01-19T23:56:23.772Z,99.90
2019-01-19T23:58:53.472Z,99.90
